Time;durP1;ratioP1;P1;durP2;ratioP2;P2;SDS_P1;SDS_P2;PMS_P1;PMS_P2;Temp;Humidity;BMP_temperature;BMP_pressure;BME280_temperature;BME280_humidity;BME280_pressure;Samples;Min_cycle;Max_cycle;Signal;HPM_P1;HPM_P2
2022/09/17 00:01:25;;;;;;;16.85;2.35;;;11.60;99.90;;;;;;5038156;28;20051;-73
2022/09/17 00:03:54;;;;;;;15.38;2.17;;;11.60;99.90;;;;;;5055225;28;20051;-73
2022/09/17 00:06:22;;;;;;;17.70;2.63;;;11.70;99.90;;;;;;5062459;28;20049;-73
2022/09/17 00:08:48;;;;;;;14.18;2.22;;;11.70;99.90;;;;;;5065387;28;20374;-73
2022/09/17 00:11:20;;;;;;;16.38;1.85;;;11.60;99.90;;;;;;5054975;28;20435;-73
2022/09/17 00:13:47;;;;;;;11.27;1.65;;;11.70;99.90;;;;;;5071376;28;20132;-74
2022/09/17 00:16:25;;;;;;;14.18;2.20;;;11.70;99.90;;;;;;5051407;28;20053;-73
2022/09/17 00:18:51;;;;;;;16.90;2.97;;;11.70;99.90;;;;;;5062017;28;20037;-74
2022/09/17 00:21:18;;;;;;;15.15;1.90;;;11.70;99.90;;;;;;5062135;28;20040;-73
2022/09/17 00:23:44;;;;;;;13.88;1.80;;;11.60;99.90;;;;;;5066620;28;20485;-74
2022/09/17 00:26:11;;;;;;;12.77;2.10;;;11.70;99.90;;;;;;5068426;28;20040;-74
2022/09/17 00:28:37;;;;;;;12.95;1.88;;;11.70;99.90;;;;;;5070039;28;20044;-73
2022/09/17 00:31:07;;;;;;;8.75;1.23;;;11.70;99.90;;;;;;5071388;28;20071;-73
2022/09/17 00:33:34;;;;;;;13.20;1.95;;;11.60;99.90;;;;;;5071298;28;20048;-73
2022/09/17 00:36:01;;;;;;;8.13;1.20;;;11.70;99.90;;;;;;5044717;28;20059;-73
2022/09/17 00:38:28;;;;;;;12.35;1.65;;;11.60;99.90;;;;;;5072072;28;20064;-73
2022/09/17 00:40:54;;;;;;;11.27;1.70;;;11.70;99.90;;;;;;5071031;28;20057;-73
2022/09/17 00:43:38;;;;;;;8.30;1.50;;;11.70;99.90;;;;;;5071401;28;20055;-73
2022/09/17 00:46:29;;;;;;;10.38;1.33;;;11.70;99.90;;;;;;5069922;28;20404;-74
2022/09/17 00:48:58;;;;;;;8.60;1.42;;;11.70;99.90;;;;;;5058480;28;20512;-74
2022/09/17 00:51:59;;;;;;;13.18;1.70;;;11.70;99.90;;;;;;5075098;28;20045;-74
2022/09/17 00:54:25;;;;;;;9.27;1.40;;;11.60;99.90;;;;;;5054760;28;20044;-74
2022/09/17 00:56:51;;;;;;;15.07;2.13;;;11.70;99.90;;;;;;5038205;28;20098;-74
2022/09/17 00:59:19;;;;;;;9.25;1.70;;;11.60;99.90;;;;;;5054254;28;20390;-73
2022/09/17 01:01:45;;;;;;;10.43;1.30;;;11.50;99.90;;;;;;5056487;28;20075;-74
2022/09/17 01:04:19;;;;;;;12.85;1.75;;;11.50;99.90;;;;;;5054734;28;20084;-74
2022/09/17 01:07:01;;;;;;;14.05;1.95;;;11.50;99.90;;;;;;5073329;28;20053;-74
2022/09/17 01:09:52;;;;;;;12.02;1.52;;;11.50;99.90;;;;;;5057010;28;20044;-74
2022/09/17 01:13:00;;;;;;;11.70;1.77;;;11.40;99.90;;;;;;5075681;28;20040;-75
2022/09/17 01:15:32;;;;;;;13.38;2.10;;;11.30;99.90;;;;;;5070577;28;20045;-74
2022/09/17 01:18:24;;;;;;;13.18;2.00;;;11.30;99.90;;;;;;5074632;28;20477;-74
2022/09/17 01:20:56;;;;;;;16.02;3.75;;;11.30;99.90;;;;;;5065999;28;20048;-74
2022/09/17 01:24:05;;;;;;;13.18;1.85;;;11.30;99.90;;;;;;5082647;28;20036;-74
2022/09/17 01:26:43;;;;;;;14.63;2.05;;;11.30;99.90;;;;;;5061908;28;20041;-74
2022/09/17 01:29:44;;;;;;;12.55;2.00;;;11.30;99.90;;;;;;5054152;28;20378;-75
2022/09/17 01:32:29;;;;;;;7.80;1.70;;;11.40;99.90;;;;;;5045001;28;20055;-74
2022/09/17 01:34:57;;;;;;;13.32;1.83;;;11.30;99.90;;;;;;5052587;28;20082;-74
2022/09/17 01:37:35;;;;;;;15.80;2.13;;;11.20;99.90;;;;;;5069385;28;20052;-74
2022/09/17 01:40:12;;;;;;;10.20;1.80;;;11.10;99.90;;;;;;5074156;28;20067;-74
2022/09/17 01:42:46;;;;;;;12.00;1.80;;;11.10;99.90;;;;;;5074275;28;20051;-73
2022/09/17 01:45:21;;;;;;;12.18;1.63;;;11.00;99.90;;;;;;5050728;28;20048;-73
2022/09/17 01:47:53;;;;;;;11.70;1.48;;;11.00;99.90;;;;;;5049342;28;20135;-74
2022/09/17 01:50:32;;;;;;;19.48;2.15;;;11.00;99.90;;;;;;5069286;28;20041;-74
2022/09/17 01:52:59;;;;;;;13.50;2.20;;;11.00;99.90;;;;;;5073675;28;20131;-73
2022/09/17 01:55:30;;;;;;;11.05;1.73;;;10.90;99.90;;;;;;5071703;28;20507;-74
2022/09/17 01:58:01;;;;;;;11.32;1.88;;;10.90;99.90;;;;;;5085531;28;20105;-73
2022/09/17 02:00:28;;;;;;;15.15;1.67;;;10.90;99.90;;;;;;5077029;28;20052;-73
2022/09/17 02:03:13;;;;;;;13.80;1.85;;;10.80;99.90;;;;;;5087424;28;20481;-73
2022/09/17 02:05:45;;;;;;;8.80;1.90;;;10.80;99.90;;;;;;5072863;28;20079;-74
2022/09/17 02:08:17;;;;;;;15.38;1.80;;;10.80;99.90;;;;;;5056905;28;20087;-74
2022/09/17 02:10:48;;;;;;;16.30;2.25;;;10.80;99.90;;;;;;5056905;28;20041;-74
2022/09/17 02:13:43;;;;;;;13.60;1.80;;;10.80;99.90;;;;;;5073424;28;20390;-74
2022/09/17 02:16:25;;;;;;;14.57;1.80;;;10.80;99.90;;;;;;5050944;28;20051;-74
2022/09/17 02:19:07;;;;;;;15.02;2.25;;;10.70;99.90;;;;;;5064132;28;20127;-74
2022/09/17 02:21:51;;;;;;;15.70;1.77;;;10.60;99.90;;;;;;5073528;28;20507;-74
2022/09/17 02:24:25;;;;;;;14.68;1.80;;;10.70;99.90;;;;;;5073383;28;20052;-74
2022/09/17 02:27:06;;;;;;;13.85;2.00;;;10.70;99.90;;;;;;5067793;28;20059;-74
2022/09/17 02:29:38;;;;;;;20.25;2.30;;;10.70;99.90;;;;;;5072946;28;20082;-73
2022/09/17 02:32:05;;;;;;;13.40;2.22;;;10.60;99.90;;;;;;5084401;28;20044;-73
2022/09/17 02:34:31;;;;;;;13.75;2.00;;;10.60;99.90;;;;;;5093334;28;20040;-74
2022/09/17 02:36:58;;;;;;;18.27;2.13;;;10.50;99.90;;;;;;5071386;28;20076;-74
2022/09/17 02:39:24;;;;;;;11.90;1.67;;;10.40;99.90;;;;;;5036178;28;20135;-73
2022/09/17 02:41:53;;;;;;;13.10;2.03;;;10.50;99.90;;;;;;5060970;28;20389;-74
2022/09/17 02:44:40;;;;;;;11.27;1.92;;;10.40;99.90;;;;;;5056256;28;20389;-74
2022/09/17 02:47:12;;;;;;;13.13;1.67;;;10.40;99.90;;;;;;5050856;28;20040;-74
2022/09/17 02:49:53;;;;;;;;;;;10.30;99.90;;;;;;5073225;28;20080;-74
2022/09/17 02:52:46;;;;;;;13.55;1.90;;;10.30;99.90;;;;;;5074003;28;20403;-74
2022/09/17 02:55:17;;;;;;;11.65;1.90;;;10.30;99.90;;;;;;5072732;28;20044;-74
2022/09/17 02:57:46;;;;;;;;;;;10.30;99.90;;;;;;5050862;28;20453;-74
2022/09/17 03:00:21;;;;;;;14.52;1.67;;;10.40;99.90;;;;;;5073005;28;19920;-74
2022/09/17 03:03:03;;;;;;;21.45;2.05;;;10.30;99.90;;;;;;5092962;28;20436;-74
2022/09/17 03:05:29;;;;;;;16.63;2.17;;;10.30;99.90;;;;;;5091329;28;20048;-74
2022/09/17 03:07:57;;;;;;;11.80;1.42;;;10.30;99.90;;;;;;5067536;28;20560;-74
2022/09/17 03:10:23;;;;;;;10.98;1.90;;;10.30;99.90;;;;;;5070661;28;20044;-74
2022/09/17 03:12:54;;;;;;;12.55;1.85;;;10.30;99.90;;;;;;5055951;28;20127;-74
2022/09/17 03:15:20;;;;;;;11.90;2.10;;;10.40;99.90;;;;;;5072340;28;20491;-74
2022/09/17 03:17:46;;;;;;;14.15;1.67;;;10.40;99.90;;;;;;5069701;28;20033;-75
2022/09/17 03:20:14;;;;;;;14.57;1.90;;;10.50;99.90;;;;;;5028086;28;20044;-74
2022/09/17 03:22:41;;;;;;;9.63;1.50;;;10.50;99.90;;;;;;5092335;28;20048;-74
2022/09/17 03:25:07;;;;;;;11.18;1.33;;;10.60;99.90;;;;;;5059273;28;20054;-74
2022/09/17 03:27:33;;;;;;;15.68;2.05;;;10.60;99.90;;;;;;5073091;28;20504;-74
2022/09/17 03:29:59;;;;;;;9.85;1.80;;;10.50;99.90;;;;;;5067030;28;20070;-74
2022/09/17 03:32:25;;;;;;;7.55;1.40;;;10.50;99.90;;;;;;5072245;28;20445;-74
2022/09/17 03:34:52;;;;;;;13.95;1.60;;;10.50;99.90;;;;;;5059751;28;20503;-74
2022/09/17 03:37:18;;;;;;;7.13;1.33;;;10.50;99.90;;;;;;5091963;28;20052;-74
2022/09/17 03:39:50;;;;;;;10.45;1.70;;;10.50;99.90;;;;;;5080343;28;20420;-74
2022/09/17 03:42:16;;;;;;;8.90;1.58;;;10.50;99.90;;;;;;5092803;28;20040;-74
2022/09/17 03:44:42;;;;;;;10.02;1.27;;;10.50;99.90;;;;;;5058932;28;20040;-74
2022/09/17 03:47:08;;;;;;;8.82;1.60;;;10.60;99.90;;;;;;5079662;28;20131;-74
2022/09/17 03:49:34;;;;;;;10.38;1.70;;;10.60;99.90;;;;;;5068494;28;20397;-74
2022/09/17 03:52:00;;;;;;;12.73;1.80;;;10.60;99.90;;;;;;5066990;28;20058;-74
2022/09/17 03:54:26;;;;;;;9.20;1.10;;;10.50;99.90;;;;;;5054977;28;20440;-74
2022/09/17 03:56:52;;;;;;;9.88;1.45;;;10.50;99.90;;;;;;5055173;28;20110;-75
2022/09/17 03:59:17;;;;;;;10.57;1.20;;;10.50;99.90;;;;;;5052837;28;20048;-74
2022/09/17 04:01:43;;;;;;;9.23;1.48;;;10.50;99.90;;;;;;5061166;28;20051;-75
2022/09/17 04:04:09;;;;;;;13.75;1.63;;;10.40;99.90;;;;;;5085930;28;20043;-74
2022/09/17 04:06:35;;;;;;;9.20;1.30;;;10.40;99.90;;;;;;5071722;28;20045;-75
2022/09/17 04:09:03;;;;;;;9.15;1.70;;;10.40;99.90;;;;;;5071255;28;20059;-74
2022/09/17 04:11:29;;;;;;;12.32;1.73;;;10.30;99.90;;;;;;5053882;28;20051;-75
2022/09/17 04:13:55;;;;;;;9.18;1.25;;;10.30;99.90;;;;;;5077039;28;20055;-74
2022/09/17 04:16:21;;;;;;;12.55;1.80;;;10.40;99.90;;;;;;5091922;28;20040;-74
2022/09/17 04:18:47;;;;;;;11.40;1.30;;;10.40;99.90;;;;;;5086238;28;20086;-74
2022/09/17 04:21:13;;;;;;;10.75;1.73;;;10.30;99.90;;;;;;5072600;28;20176;-74
2022/09/17 04:23:39;;;;;;;9.45;1.10;;;10.30;99.90;;;;;;5072510;28;20036;-74
2022/09/17 04:26:05;;;;;;;13.05;1.60;;;10.30;99.90;;;;;;5047812;28;20496;-74
2022/09/17 04:28:31;;;;;;;12.65;2.28;;;10.20;99.90;;;;;;5095600;28;20488;-74
2022/09/17 04:30:57;;;;;;;11.90;1.60;;;10.20;99.90;;;;;;5093851;28;20051;-74
2022/09/17 04:33:23;;;;;;;13.23;1.65;;;10.10;99.90;;;;;;5070182;28;20044;-74
2022/09/17 04:35:48;;;;;;;8.25;1.40;;;10.10;99.90;;;;;;5058665;28;20135;-75
2022/09/17 04:38:17;;;;;;;12.35;1.52;;;10.10;99.90;;;;;;5058135;28;20068;-74
2022/09/17 04:40:45;;;;;;;13.48;1.70;;;10.20;99.90;;;;;;5062711;28;20047;-74
2022/09/17 04:43:11;;;;;;;10.82;1.55;;;10.30;99.90;;;;;;5058016;28;20511;-74
2022/09/17 04:45:37;;;;;;;10.40;1.75;;;10.30;99.90;;;;;;5067629;28;20067;-73
2022/09/17 04:48:03;;;;;;;14.10;1.50;;;10.30;99.90;;;;;;5057520;28;20056;-74
2022/09/17 04:50:29;;;;;;;13.00;2.10;;;10.30;99.90;;;;;;5075213;28;20044;-74
2022/09/17 04:52:55;;;;;;;13.60;1.38;;;10.30;99.90;;;;;;5070953;28;20064;-74
2022/09/17 04:55:21;;;;;;;7.85;1.70;;;10.30;99.90;;;;;;5074937;28;20048;-74
2022/09/17 04:57:49;;;;;;;14.07;2.20;;;10.30;99.90;;;;;;5077467;28;20594;-74
2022/09/17 05:00:16;;;;;;;7.35;1.60;;;10.30;99.90;;;;;;5094923;28;20054;-74
2022/09/17 05:02:48;;;;;;;12.27;1.45;;;10.20;99.90;;;;;;5077848;28;20056;-74
2022/09/17 05:05:15;;;;;;;10.10;1.20;;;10.30;99.90;;;;;;5071064;28;20473;-74
2022/09/17 05:07:41;;;;;;;10.27;1.35;;;10.30;99.90;;;;;;5056948;28;20048;-73
2022/09/17 05:10:09;;;;;;;11.18;1.33;;;10.30;99.90;;;;;;5077457;28;20052;-74
2022/09/17 05:12:35;;;;;;;9.25;1.73;;;10.30;99.90;;;;;;5077705;28;20055;-73
2022/09/17 05:15:01;;;;;;;11.90;1.40;;;10.20;99.90;;;;;;5079169;28;20445;-73
2022/09/17 05:17:27;;;;;;;10.60;1.50;;;10.20;99.90;;;;;;5074749;28;20078;-74
2022/09/17 05:19:53;;;;;;;9.68;1.45;;;10.30;99.90;;;;;;5057665;28;20603;-74
2022/09/17 05:22:19;;;;;;;12.88;1.85;;;10.20;99.90;;;;;;5073620;28;20489;-74
2022/09/17 05:24:45;;;;;;;10.30;1.63;;;10.20;99.90;;;;;;5049771;28;20044;-74
2022/09/17 05:27:11;;;;;;;9.60;1.50;;;10.20;99.90;;;;;;5055371;28;20041;-74
2022/09/17 05:29:37;;;;;;;11.98;1.63;;;10.30;99.90;;;;;;5073974;28;20048;-74
2022/09/17 05:32:03;;;;;;;7.50;1.30;;;10.20;99.90;;;;;;5074051;28;20400;-74
2022/09/17 05:34:29;;;;;;;10.93;1.50;;;10.30;99.90;;;;;;5056697;28;20048;-73
2022/09/17 05:36:55;;;;;;;5.88;1.40;;;10.30;99.90;;;;;;5066012;28;20550;-74
2022/09/17 05:39:24;;;;;;;11.43;1.63;;;10.30;99.90;;;;;;5052750;28;20053;-74
2022/09/17 05:41:51;;;;;;;9.10;1.52;;;10.30;99.90;;;;;;5058073;28;20481;-74
2022/09/17 05:44:18;;;;;;;9.50;1.55;;;10.20;99.90;;;;;;5074050;28;20655;-74
2022/09/17 05:46:44;;;;;;;13.15;1.35;;;10.10;99.90;;;;;;5055588;28;20048;-74
2022/09/17 05:49:11;;;;;;;10.95;1.48;;;10.10;99.90;;;;;;5081931;28;20458;-73
2022/09/17 05:51:37;;;;;;;15.70;1.63;;;10.10;99.90;;;;;;5071700;28;20045;-74
2022/09/17 05:54:03;;;;;;;13.35;1.58;;;10.10;99.90;;;;;;5074095;28;20404;-74
2022/09/17 05:56:29;;;;;;;13.13;1.92;;;10.20;99.90;;;;;;5073788;28;20052;-74
2022/09/17 05:58:56;;;;;;;8.63;1.48;;;10.30;99.90;;;;;;5053714;28;20045;-74
2022/09/17 06:01:22;;;;;;;12.20;1.73;;;10.30;99.90;;;;;;5056399;28;20063;-74
2022/09/17 06:03:48;;;;;;;13.15;1.58;;;10.40;99.90;;;;;;5093315;28;20044;-74
2022/09/17 06:06:14;;;;;;;12.63;1.45;;;10.50;99.90;;;;;;5077075;28;20054;-74
2022/09/17 06:08:40;;;;;;;13.43;1.45;;;10.60;99.90;;;;;;5056677;28;20063;-74
2022/09/17 06:11:07;;;;;;;9.38;1.40;;;10.60;99.90;;;;;;5065227;28;20073;-73
2022/09/17 06:13:33;;;;;;;9.60;1.55;;;10.70;99.90;;;;;;5071178;28;20129;-74
2022/09/17 06:16:01;;;;;;;12.18;1.50;;;10.80;99.90;;;;;;5073825;28;20044;-74
2022/09/17 06:18:28;;;;;;;7.88;1.65;;;10.80;99.90;;;;;;5075065;28;20476;-74
2022/09/17 06:20:59;;;;;;;9.18;1.52;;;10.90;99.90;;;;;;5064148;28;20055;-73
2022/09/17 06:23:26;;;;;;;11.63;1.73;;;11.00;99.90;;;;;;5056827;28;20145;-73
2022/09/17 06:25:58;;;;;;;12.98;1.80;;;11.10;99.90;;;;;;5056884;28;20059;-73
2022/09/17 06:28:25;;;;;;;11.65;1.67;;;11.30;99.90;;;;;;5056451;28;20053;-74
2022/09/17 06:30:53;;;;;;;10.20;1.80;;;11.50;99.90;;;;;;5068967;28;20125;-74
2022/09/17 06:33:19;;;;;;;14.77;1.52;;;11.70;99.90;;;;;;5070880;28;20063;-74
2022/09/17 06:35:45;;;;;;;12.20;1.80;;;11.80;99.90;;;;;;5056344;28;20489;-74
2022/09/17 06:38:11;;;;;;;14.32;1.50;;;11.90;99.90;;;;;;5056097;28;20082;-72
2022/09/17 06:40:37;;;;;;;9.52;1.52;;;11.90;99.90;;;;;;5070571;28;20060;-74
2022/09/17 06:43:03;;;;;;;12.90;1.80;;;11.70;99.90;;;;;;5032584;28;20393;-74
2022/09/17 06:45:29;;;;;;;14.95;2.00;;;11.60;99.90;;;;;;5052897;28;20124;-73
2022/09/17 06:47:55;;;;;;;10.38;1.52;;;11.50;99.90;;;;;;5073430;28;20044;-73
2022/09/17 06:50:21;;;;;;;15.38;2.25;;;11.40;99.90;;;;;;5076437;28;20040;-73
2022/09/17 06:52:53;;;;;;;12.82;1.95;;;11.40;99.90;;;;;;5064609;28;20393;-74
2022/09/17 06:55:20;;;;;;;14.27;1.63;;;11.40;99.90;;;;;;5085585;28;20086;-74
2022/09/17 06:57:46;;;;;;;6.50;1.60;;;11.30;99.90;;;;;;5055626;28;20105;-73
2022/09/17 07:00:13;;;;;;;12.55;1.67;;;11.30;99.90;;;;;;5060223;28;20045;-73
2022/09/17 07:02:39;;;;;;;15.60;2.63;;;11.30;99.90;;;;;;5087058;28;20052;-73
2022/09/17 07:05:05;;;;;;;15.70;1.58;;;11.50;99.90;;;;;;5072541;28;20044;-71
2022/09/17 07:07:34;;;;;;;10.07;1.40;;;11.60;99.90;;;;;;5053627;28;20041;-72
2022/09/17 07:10:01;;;;;;;13.52;1.67;;;11.60;99.90;;;;;;5035427;28;20041;-73
2022/09/17 07:12:26;;;;;;;9.48;1.30;;;11.60;99.90;;;;;;5036138;28;20052;-73
2022/09/17 07:14:52;;;;;;;10.75;1.95;;;11.50;99.90;;;;;;5089402;28;20040;-73
2022/09/17 07:17:19;;;;;;;6.35;1.02;;;11.40;99.90;;;;;;5040988;28;20063;-73
2022/09/17 07:19:45;;;;;;;10.23;2.28;;;11.40;99.90;;;;;;5058832;28;20044;-73
2022/09/17 07:22:12;;;;;;;13.20;2.00;;;11.50;99.90;;;;;;5065758;28;20388;-74
2022/09/17 07:24:38;;;;;;;11.13;1.58;;;11.60;99.90;;;;;;5052562;28;20078;-74
2022/09/17 07:27:04;;;;;;;7.80;1.48;;;11.80;99.90;;;;;;5068538;28;20052;-73
2022/09/17 07:29:31;;;;;;;12.13;1.65;;;11.90;99.90;;;;;;5092232;28;20050;-74
2022/09/17 07:31:58;;;;;;;12.70;1.45;;;12.10;99.90;;;;;;5068211;28;20067;-73
2022/09/17 07:34:27;;;;;;;4.68;1.17;;;12.30;99.90;;;;;;5051150;28;20118;-73
2022/09/17 07:36:53;;;;;;;10.70;1.55;;;12.60;99.90;;;;;;5055116;28;20083;-73
2022/09/17 07:39:19;;;;;;;10.52;1.40;;;12.70;99.90;;;;;;5071271;28;20084;-73
2022/09/17 07:41:45;;;;;;;9.38;1.50;;;13.00;99.90;;;;;;5024593;28;20130;-73
2022/09/17 07:44:11;;;;;;;8.00;1.77;;;13.10;99.90;;;;;;5035233;28;20131;-73
2022/09/17 07:46:37;;;;;;;11.52;1.50;;;13.10;99.90;;;;;;5055358;28;20131;-73
2022/09/17 07:49:03;;;;;;;9.63;1.25;;;12.90;99.90;;;;;;5055408;28;20090;-73
2022/09/17 07:51:29;;;;;;;7.40;1.35;;;12.90;99.90;;;;;;5050575;28;20580;-73
2022/09/17 07:53:57;;;;;;;11.07;1.45;;;12.80;99.90;;;;;;5061661;28;20493;-73
2022/09/17 07:56:23;;;;;;;10.07;1.45;;;12.70;99.90;;;;;;5075093;28;20111;-73
2022/09/17 07:58:50;;;;;;;11.48;1.55;;;12.90;99.90;;;;;;5053091;28;20052;-73
2022/09/17 08:01:17;;;;;;;14.15;1.75;;;13.20;99.90;;;;;;5071448;28;20417;-73
2022/09/17 08:03:50;;;;;;;8.13;1.40;;;13.40;99.90;;;;;;5053689;28;20618;-73
2022/09/17 08:06:19;;;;;;;6.63;1.00;;;13.40;99.90;;;;;;5047864;28;20404;-73
2022/09/17 08:08:45;;;;;;;9.45;1.70;;;13.40;99.90;;;;;;5054789;28;20045;-70
2022/09/17 08:11:17;;;;;;;6.22;1.17;;;13.00;99.90;;;;;;5084747;28;20040;-72
2022/09/17 08:13:47;;;;;;;7.10;1.20;;;11.70;99.90;;;;;;5084351;28;20062;-72
2022/09/17 08:16:14;;;;;;;4.07;0.80;;;11.20;99.90;;;;;;5051737;28;20049;-72
2022/09/17 08:18:41;;;;;;;6.95;1.00;;;10.90;99.90;;;;;;5068059;28;20367;-73
2022/09/17 08:21:10;;;;;;;6.00;0.70;;;10.80;99.90;;;;;;5056864;28;20047;-72
2022/09/17 08:23:37;;;;;;;4.68;0.93;;;10.70;99.90;;;;;;5055882;28;20091;-72
2022/09/17 08:26:07;;;;;;;7.72;1.10;;;10.60;99.90;;;;;;5090124;28;20040;-72
2022/09/17 08:28:33;;;;;;;4.82;0.82;;;10.60;99.90;;;;;;5076714;28;20044;-72
2022/09/17 08:31:02;;;;;;;6.30;0.77;;;10.80;99.90;;;;;;5069533;28;20045;-72
2022/09/17 08:33:32;;;;;;;4.68;0.90;;;11.10;99.90;;;;;;5050531;28;20424;-72
2022/09/17 08:35:58;;;;;;;3.97;0.90;;;11.60;99.90;;;;;;5071347;28;20123;-72
2022/09/17 08:38:31;;;;;;;4.35;1.00;;;11.80;99.90;;;;;;5071063;28;20579;-72
2022/09/17 08:41:06;;;;;;;4.85;1.02;;;12.10;99.90;;;;;;5087241;28;20502;-72
2022/09/17 08:43:54;;;;;;;9.48;1.00;;;12.10;99.90;;;;;;5065287;28;20057;-73
2022/09/17 08:46:21;;;;;;;5.65;1.05;;;12.00;99.90;;;;;;5044437;28;20512;-73
2022/09/17 08:49:04;;;;;;;9.80;1.23;;;12.20;99.90;;;;;;5048792;28;20048;-72
2022/09/17 08:51:53;;;;;;;7.95;1.38;;;12.50;99.90;;;;;;5076222;28;20047;-73
2022/09/17 08:54:56;;;;;;;9.57;1.35;;;12.80;99.90;;;;;;5074706;28;20048;-73
